createdAt,value
2018-06-15T18:05:12.100Z,24.73
2018-06-15T18:07:40.805Z,25.90
2018-06-15T18:10:09.097Z,24.23
2018-06-15T18:12:38.201Z,27.30
2018-06-15T18:15:06.813Z,22.60
2018-06-15T18:17:35.709Z,24.73
2018-06-15T18:20:04.588Z,26.07
2018-06-15T18:22:33.424Z,25.97
2018-06-15T18:25:02.021Z,26.13
2018-06-15T18:27:30.625Z,27.03
2018-06-15T18:29:59.146Z,24.23
2018-06-15T18:32:27.924Z,25.27
2018-06-15T18:34:56.830Z,26.40
2018-06-15T18:37:25.450Z,25.70
2018-06-15T18:39:54.147Z,27.00
2018-06-15T18:42:22.743Z,26.10
2018-06-15T18:44:51.299Z,25.20
2018-06-15T18:47:19.849Z,28.83
2018-06-15T18:49:48.444Z,29.03
2018-06-15T18:52:16.971Z,27.47
2018-06-15T18:54:45.533Z,32.20
2018-06-15T18:57:14.270Z,25.50
2018-06-15T18:59:43.098Z,23.23
2018-06-15T19:02:11.700Z,24.37
2018-06-15T19:04:41.558Z,24.30
2018-06-15T19:07:10.414Z,24.03
2018-06-15T19:09:39.044Z,23.23
2018-06-15T19:12:07.753Z,24.00
2018-06-15T19:14:36.488Z,25.93
2018-06-15T19:17:05.439Z,26.30
2018-06-15T19:19:35.090Z,25.20
2018-06-15T19:22:03.703Z,26.47
2018-06-15T19:24:32.372Z,25.90
2018-06-15T19:27:01.164Z,27.80
2018-06-15T19:29:29.735Z,26.40
2018-06-15T19:32:00.460Z,26.37
2018-06-15T19:34:29.252Z,26.27
2018-06-15T19:36:57.796Z,28.40
2018-06-15T19:39:26.404Z,24.30
2018-06-15T19:41:55.268Z,25.67
2018-06-15T19:44:25.257Z,27.07
2018-06-15T19:46:54.534Z,28.93
2018-06-15T19:49:23.144Z,28.60
2018-06-15T19:51:51.795Z,30.87
2018-06-15T19:54:20.567Z,31.17
2018-06-15T19:56:49.467Z,32.23
2018-06-15T19:59:18.266Z,31.43
2018-06-15T20:01:46.927Z,34.73
2018-06-15T20:04:17.087Z,32.10
2018-06-15T20:06:46.081Z,30.87
2018-06-15T20:09:14.715Z,31.20
2018-06-15T20:11:43.611Z,33.20
2018-06-15T20:14:12.189Z,31.30
2018-06-15T20:16:40.831Z,30.00
2018-06-15T20:19:09.685Z,29.10
2018-06-15T20:21:38.231Z,31.80
2018-06-15T20:24:06.833Z,32.80
2018-06-15T20:26:35.396Z,30.93
2018-06-15T20:29:04.167Z,33.60
2018-06-15T20:31:32.865Z,31.70
2018-06-15T20:34:01.482Z,29.13
2018-06-15T20:36:30.286Z,30.27
2018-06-15T20:38:59.097Z,35.50
2018-06-15T20:41:27.715Z,31.00
2018-06-15T20:43:56.381Z,32.63
2018-06-15T20:46:24.992Z,30.00
2018-06-15T20:48:53.675Z,31.43
2018-06-15T20:51:22.332Z,29.57
2018-06-15T20:53:50.872Z,29.07
2018-06-15T20:56:19.471Z,31.03
2018-06-15T20:58:48.007Z,32.13
2018-06-15T21:01:16.596Z,30.10
2018-06-15T21:03:45.248Z,32.30
2018-06-15T21:06:13.883Z,31.73
2018-06-15T21:08:42.537Z,30.73
2018-06-15T21:11:11.127Z,31.60
2018-06-15T21:13:39.763Z,30.57
2018-06-15T21:16:08.510Z,33.03
2018-06-15T21:18:37.122Z,30.57
2018-06-15T21:21:05.966Z,29.90
2018-06-15T21:23:34.686Z,29.93
2018-06-15T21:26:03.270Z,31.03
2018-06-15T21:28:31.846Z,27.60
2018-06-15T21:31:00.509Z,30.90
2018-06-15T21:33:29.190Z,26.33
2018-06-15T21:35:57.922Z,27.77
2018-06-15T21:38:26.475Z,26.20
2018-06-15T21:40:55.316Z,25.60
2018-06-15T21:43:23.904Z,25.70
2018-06-15T21:45:52.606Z,26.83
2018-06-15T21:48:21.204Z,26.90
2018-06-15T21:50:49.960Z,24.90
2018-06-15T21:53:18.601Z,27.70
2018-06-15T21:55:47.290Z,27.13
2018-06-15T21:58:15.840Z,27.90
2018-06-15T22:00:44.439Z,25.57
2018-06-15T22:03:13.050Z,25.97
2018-06-15T22:05:41.803Z,25.27
2018-06-15T22:08:10.515Z,24.57
2018-06-15T22:10:39.059Z,22.50
2018-06-15T22:13:07.751Z,23.53
2018-06-15T22:15:36.495Z,21.00
2018-06-15T22:18:05.429Z,24.73
2018-06-15T22:20:34.277Z,22.60
2018-06-15T22:23:02.970Z,27.93
2018-06-15T22:25:31.649Z,25.73
2018-06-15T22:28:00.366Z,22.37
2018-06-15T22:30:29.043Z,22.93
2018-06-15T22:32:57.591Z,22.57
2018-06-15T22:35:26.175Z,21.40
2018-06-15T22:37:54.752Z,20.23
2018-06-15T22:40:23.347Z,28.57
2018-06-15T22:42:52.031Z,25.40
2018-06-15T22:45:20.655Z,22.77
2018-06-15T22:47:49.478Z,23.27
2018-06-15T22:50:18.183Z,27.40
2018-06-15T22:52:46.770Z,20.60
2018-06-15T22:55:15.704Z,23.97
2018-06-15T22:57:44.391Z,33.03
2018-06-15T23:00:16.767Z,26.00
2018-06-15T23:02:45.547Z,26.20
2018-06-15T23:05:14.267Z,23.97
2018-06-15T23:07:43.174Z,21.20
2018-06-15T23:10:11.753Z,21.30
2018-06-15T23:12:40.354Z,25.33
2018-06-15T23:15:08.574Z,22.23
2018-06-15T23:17:37.118Z,21.00
2018-06-15T23:20:05.782Z,22.27
2018-06-15T23:22:34.474Z,23.87
2018-06-15T23:25:03.356Z,25.57
2018-06-15T23:27:32.088Z,20.60
2018-06-15T23:30:00.659Z,20.97
2018-06-15T23:32:29.373Z,21.77
2018-06-15T23:34:57.976Z,21.77
2018-06-15T23:37:26.589Z,24.77
2018-06-15T23:39:55.108Z,24.57
2018-06-15T23:42:23.756Z,23.03
2018-06-15T23:44:52.509Z,22.67
2018-06-15T23:47:21.151Z,18.83
2018-06-15T23:49:49.952Z,22.30
2018-06-15T23:52:18.603Z,21.10
2018-06-15T23:54:47.476Z,19.80
2018-06-15T23:57:16.167Z,19.80
2018-06-15T23:59:44.886Z,21.60
